sensor_id;sensor_type;location;lat;lon;timestamp;temperature;humidity
59307;DHT22;47983;53.016;-2.260;2022-09-25T00:00:56;6.80;99.90
59307;DHT22;47983;53.016;-2.260;2022-09-25T00:03:24;6.80;99.90
59307;DHT22;47983;53.016;-2.260;2022-09-25T00:05:52;6.80;99.90
59307;DHT22;47983;53.016;-2.260;2022-09-25T00:08:20;6.80;99.90
59307;DHT22;47983;53.016;-2.260;2022-09-25T00:10:48;6.70;99.90
59307;DHT22;47983;53.016;-2.260;2022-09-25T00:13:16;6.70;99.90
59307;DHT22;47983;53.016;-2.260;2022-09-25T00:15:52;6.70;99.90
59307;DHT22;47983;53.016;-2.260;2022-09-25T00:18:20;6.60;99.90
59307;DHT22;47983;53.016;-2.260;2022-09-25T00:21:09;6.50;99.90
59307;DHT22;47983;53.016;-2.260;2022-09-25T00:23:39;6.50;99.90
59307;DHT22;47983;53.016;-2.260;2022-09-25T00:26:07;6.50;99.90
59307;DHT22;47983;53.016;-2.260;2022-09-25T00:28:35;6.50;99.90
59307;DHT22;47983;53.016;-2.260;2022-09-25T00:31:03;6.50;99.90
59307;DHT22;47983;53.016;-2.260;2022-09-25T00:33:32;6.50;99.90
59307;DHT22;47983;53.016;-2.260;2022-09-25T00:36:03;6.40;99.90
59307;DHT22;47983;53.016;-2.260;2022-09-25T00:38:33;6.40;99.90
59307;DHT22;47983;53.016;-2.260;2022-09-25T00:41:01;6.40;99.90
59307;DHT22;47983;53.016;-2.260;2022-09-25T00:43:33;6.40;99.90
59307;DHT22;47983;53.016;-2.260;2022-09-25T00:46:00;6.40;99.90
59307;DHT22;47983;53.016;-2.260;2022-09-25T00:48:29;6.30;99.90
59307;DHT22;47983;53.016;-2.260;2022-09-25T00:50:57;6.30;99.90
59307;DHT22;47983;53.016;-2.260;2022-09-25T00:53:27;6.20;99.90
59307;DHT22;47983;53.016;-2.260;2022-09-25T00:55:55;6.20;99.90
59307;DHT22;47983;53.016;-2.260;2022-09-25T00:58:24;6.20;99.90
59307;DHT22;47983;53.016;-2.260;2022-09-25T01:00:53;6.20;99.90
59307;DHT22;47983;53.016;-2.260;2022-09-25T01:03:21;6.10;99.90
59307;DHT22;47983;53.016;-2.260;2022-09-25T01:05:49;6.10;99.90
59307;DHT22;47983;53.016;-2.260;2022-09-25T01:08:17;6.10;99.90
59307;DHT22;47983;53.016;-2.260;2022-09-25T01:10:46;6.10;99.90
59307;DHT22;47983;53.016;-2.260;2022-09-25T01:13:13;6.00;99.90
59307;DHT22;47983;53.016;-2.260;2022-09-25T01:23:09;5.90;99.90
59307;DHT22;47983;53.016;-2.260;2022-09-25T01:25:49;5.90;99.90
59307;DHT22;47983;53.016;-2.260;2022-09-25T01:31:03;5.90;99.90
59307;DHT22;47983;53.016;-2.260;2022-09-25T01:33:34;5.80;99.90
59307;DHT22;47983;53.016;-2.260;2022-09-25T01:36:05;5.80;99.90
59307;DHT22;47983;53.016;-2.260;2022-09-25T01:38:37;5.70;99.90
59307;DHT22;47983;53.016;-2.260;2022-09-25T01:43:37;5.60;99.90
59307;DHT22;47983;53.016;-2.260;2022-09-25T01:46:19;5.60;99.90
59307;DHT22;47983;53.016;-2.260;2022-09-25T01:48:50;5.60;99.90
59307;DHT22;47983;53.016;-2.260;2022-09-25T01:51:24;5.60;99.90
59307;DHT22;47983;53.016;-2.260;2022-09-25T01:53:54;5.60;99.90
59307;DHT22;47983;53.016;-2.260;2022-09-25T01:59:33;5.50;99.90
59307;DHT22;47983;53.016;-2.260;2022-09-25T02:02:04;5.50;99.90
59307;DHT22;47983;53.016;-2.260;2022-09-25T02:04:37;5.50;99.90
59307;DHT22;47983;53.016;-2.260;2022-09-25T02:07:07;5.50;99.90
59307;DHT22;47983;53.016;-2.260;2022-09-25T02:09:42;5.50;99.90
59307;DHT22;47983;53.016;-2.260;2022-09-25T02:12:13;5.50;99.90
59307;DHT22;47983;53.016;-2.260;2022-09-25T02:14:45;5.50;99.90
59307;DHT22;47983;53.016;-2.260;2022-09-25T02:17:16;5.50;99.90
59307;DHT22;47983;53.016;-2.260;2022-09-25T02:20:07;5.40;99.90
59307;DHT22;47983;53.016;-2.260;2022-09-25T02:22:53;5.40;99.90
59307;DHT22;47983;53.016;-2.260;2022-09-25T02:25:26;5.40;99.90
59307;DHT22;47983;53.016;-2.260;2022-09-25T02:27:57;5.40;99.90
59307;DHT22;47983;53.016;-2.260;2022-09-25T02:30:25;5.40;99.90
59307;DHT22;47983;53.016;-2.260;2022-09-25T02:32:52;5.40;99.90
59307;DHT22;47983;53.016;-2.260;2022-09-25T02:35:20;5.30;99.90
59307;DHT22;47983;53.016;-2.260;2022-09-25T02:37:47;5.30;99.90
59307;DHT22;47983;53.016;-2.260;2022-09-25T02:40:14;5.30;99.90
59307;DHT22;47983;53.016;-2.260;2022-09-25T02:48:18;5.30;99.90
59307;DHT22;47983;53.016;-2.260;2022-09-25T02:51:26;5.30;99.90
59307;DHT22;47983;53.016;-2.260;2022-09-25T02:53:55;5.20;99.90
59307;DHT22;47983;53.016;-2.260;2022-09-25T02:56:32;5.20;99.90
59307;DHT22;47983;53.016;-2.260;2022-09-25T02:59:02;5.20;99.90
59307;DHT22;47983;53.016;-2.260;2022-09-25T03:01:33;5.20;99.90
59307;DHT22;47983;53.016;-2.260;2022-09-25T03:04:02;5.10;99.90
59307;DHT22;47983;53.016;-2.260;2022-09-25T03:06:31;5.10;99.90
59307;DHT22;47983;53.016;-2.260;2022-09-25T03:08:59;5.00;99.90
59307;DHT22;47983;53.016;-2.260;2022-09-25T03:11:27;5.00;99.90
59307;DHT22;47983;53.016;-2.260;2022-09-25T03:14:01;5.00;99.90
59307;DHT22;47983;53.016;-2.260;2022-09-25T03:16:35;5.00;99.90
59307;DHT22;47983;53.016;-2.260;2022-09-25T03:19:05;4.90;99.90
59307;DHT22;47983;53.016;-2.260;2022-09-25T03:21:33;4.90;99.90
59307;DHT22;47983;53.016;-2.260;2022-09-25T03:24:00;4.90;99.90
59307;DHT22;47983;53.016;-2.260;2022-09-25T03:26:27;4.90;99.90
59307;DHT22;47983;53.016;-2.260;2022-09-25T03:28:57;4.90;99.90
59307;DHT22;47983;53.016;-2.260;2022-09-25T03:31:28;4.90;99.90
59307;DHT22;47983;53.016;-2.260;2022-09-25T03:33:56;4.90;99.90
59307;DHT22;47983;53.016;-2.260;2022-09-25T03:36:25;4.90;99.90
59307;DHT22;47983;53.016;-2.260;2022-09-25T03:38:53;4.80;99.90
59307;DHT22;47983;53.016;-2.260;2022-09-25T03:41:28;4.80;99.90
59307;DHT22;47983;53.016;-2.260;2022-09-25T03:43:57;4.80;99.90
59307;DHT22;47983;53.016;-2.260;2022-09-25T03:46:25;4.80;99.90
59307;DHT22;47983;53.016;-2.260;2022-09-25T03:48:53;4.80;99.90
59307;DHT22;47983;53.016;-2.260;2022-09-25T03:51:21;4.80;99.90
59307;DHT22;47983;53.016;-2.260;2022-09-25T03:53:49;4.70;99.90
59307;DHT22;47983;53.016;-2.260;2022-09-25T03:56:18;4.70;99.90
59307;DHT22;47983;53.016;-2.260;2022-09-25T03:58:46;4.70;99.90
59307;DHT22;47983;53.016;-2.260;2022-09-25T04:01:14;4.60;99.90
59307;DHT22;47983;53.016;-2.260;2022-09-25T04:03:42;4.60;99.90
59307;DHT22;47983;53.016;-2.260;2022-09-25T04:06:14;4.60;99.90
59307;DHT22;47983;53.016;-2.260;2022-09-25T04:08:44;4.60;99.90
59307;DHT22;47983;53.016;-2.260;2022-09-25T04:11:13;4.60;99.90
59307;DHT22;47983;53.016;-2.260;2022-09-25T04:13:41;4.60;99.90
59307;DHT22;47983;53.016;-2.260;2022-09-25T04:16:10;4.60;99.90
59307;DHT22;47983;53.016;-2.260;2022-09-25T04:18:38;4.60;99.90
59307;DHT22;47983;53.016;-2.260;2022-09-25T04:21:10;4.50;99.90
59307;DHT22;47983;53.016;-2.260;2022-09-25T04:23:38;4.50;99.90
59307;DHT22;47983;53.016;-2.260;2022-09-25T04:26:06;4.50;99.90
59307;DHT22;47983;53.016;-2.260;2022-09-25T04:28:34;4.40;99.90
59307;DHT22;47983;53.016;-2.260;2022-09-25T04:31:01;4.40;99.90
59307;DHT22;47983;53.016;-2.260;2022-09-25T04:33:30;4.40;99.90
59307;DHT22;47983;53.016;-2.260;2022-09-25T04:36:15;4.40;99.90
59307;DHT22;47983;53.016;-2.260;2022-09-25T04:38:44;4.40;99.90
59307;DHT22;47983;53.016;-2.260;2022-09-25T04:41:11;4.40;99.90
59307;DHT22;47983;53.016;-2.260;2022-09-25T04:43:39;4.40;99.90
59307;DHT22;47983;53.016;-2.260;2022-09-25T04:46:09;4.40;99.90
59307;DHT22;47983;53.016;-2.260;2022-09-25T04:48:42;4.40;99.90
59307;DHT22;47983;53.016;-2.260;2022-09-25T04:51:10;4.30;99.90
59307;DHT22;47983;53.016;-2.260;2022-09-25T04:53:37;4.30;99.90
59307;DHT22;47983;53.016;-2.260;2022-09-25T04:56:07;4.20;99.90
59307;DHT22;47983;53.016;-2.260;2022-09-25T04:58:47;4.10;99.90
59307;DHT22;47983;53.016;-2.260;2022-09-25T05:01:16;4.10;99.90
59307;DHT22;47983;53.016;-2.260;2022-09-25T05:03:46;4.10;99.90
59307;DHT22;47983;53.016;-2.260;2022-09-25T05:06:14;4.00;99.90
59307;DHT22;47983;53.016;-2.260;2022-09-25T05:08:41;4.00;99.90
59307;DHT22;47983;53.016;-2.260;2022-09-25T05:11:09;4.00;99.90
59307;DHT22;47983;53.016;-2.260;2022-09-25T05:13:37;4.00;99.90
59307;DHT22;47983;53.016;-2.260;2022-09-25T05:16:05;3.90;99.90
59307;DHT22;47983;53.016;-2.260;2022-09-25T05:18:33;3.90;99.90
59307;DHT22;47983;53.016;-2.260;2022-09-25T05:21:02;3.90;99.90
59307;DHT22;47983;53.016;-2.260;2022-09-25T05:23:29;4.00;99.90
59307;DHT22;47983;53.016;-2.260;2022-09-25T05:25:57;3.90;99.90
59307;DHT22;47983;53.016;-2.260;2022-09-25T05:28:29;3.90;99.90
59307;DHT22;47983;53.016;-2.260;2022-09-25T05:31:00;3.90;99.90
59307;DHT22;47983;53.016;-2.260;2022-09-25T05:33:31;3.90;99.90
59307;DHT22;47983;53.016;-2.260;2022-09-25T05:35:59;3.90;99.90
59307;DHT22;47983;53.016;-2.260;2022-09-25T05:38:27;3.90;99.90
59307;DHT22;47983;53.016;-2.260;2022-09-25T05:40:55;3.90;99.90
59307;DHT22;47983;53.016;-2.260;2022-09-25T05:43:27;3.90;99.90
59307;DHT22;47983;53.016;-2.260;2022-09-25T05:45:54;3.90;99.90
59307;DHT22;47983;53.016;-2.260;2022-09-25T05:48:22;3.80;99.90
59307;DHT22;47983;53.016;-2.260;2022-09-25T05:50:53;3.80;99.90
59307;DHT22;47983;53.016;-2.260;2022-09-25T05:53:21;3.80;99.90
59307;DHT22;47983;53.016;-2.260;2022-09-25T05:55:52;3.80;99.90
59307;DHT22;47983;53.016;-2.260;2022-09-25T05:58:20;3.70;99.90
59307;DHT22;47983;53.016;-2.260;2022-09-25T06:00:48;3.70;99.90
59307;DHT22;47983;53.016;-2.260;2022-09-25T06:03:15;3.70;99.90
59307;DHT22;47983;53.016;-2.260;2022-09-25T06:05:43;3.70;99.90
59307;DHT22;47983;53.016;-2.260;2022-09-25T06:08:12;3.70;99.90
59307;DHT22;47983;53.016;-2.260;2022-09-25T06:10:40;3.70;99.90
59307;DHT22;47983;53.016;-2.260;2022-09-25T06:13:07;3.70;99.90
59307;DHT22;47983;53.016;-2.260;2022-09-25T06:15:36;3.70;99.90
59307;DHT22;47983;53.016;-2.260;2022-09-25T06:18:04;3.70;99.90
59307;DHT22;47983;53.016;-2.260;2022-09-25T06:20:32;3.70;99.90
59307;DHT22;47983;53.016;-2.260;2022-09-25T06:22:59;3.70;99.90
59307;DHT22;47983;53.016;-2.260;2022-09-25T06:25:29;3.70;99.90
59307;DHT22;47983;53.016;-2.260;2022-09-25T06:27:57;3.70;99.90
59307;DHT22;47983;53.016;-2.260;2022-09-25T06:30:27;3.80;99.90
59307;DHT22;47983;53.016;-2.260;2022-09-25T06:33:05;3.80;99.90
59307;DHT22;47983;53.016;-2.260;2022-09-25T06:35:39;3.90;99.90
59307;DHT22;47983;53.016;-2.260;2022-09-25T06:38:06;3.90;99.90
59307;DHT22;47983;53.016;-2.260;2022-09-25T06:40:34;3.90;99.90
59307;DHT22;47983;53.016;-2.260;2022-09-25T06:43:04;4.00;99.90
59307;DHT22;47983;53.016;-2.260;2022-09-25T06:45:32;4.10;99.90
59307;DHT22;47983;53.016;-2.260;2022-09-25T06:48:00;4.10;99.90
59307;DHT22;47983;53.016;-2.260;2022-09-25T06:50:30;4.20;99.90
59307;DHT22;47983;53.016;-2.260;2022-09-25T06:52:59;4.30;99.90
59307;DHT22;47983;53.016;-2.260;2022-09-25T06:55:27;4.40;99.90
59307;DHT22;47983;53.016;-2.260;2022-09-25T06:57:55;4.40;99.90
59307;DHT22;47983;53.016;-2.260;2022-09-25T07:00:22;4.50;99.90
59307;DHT22;47983;53.016;-2.260;2022-09-25T07:02:50;4.60;99.90
59307;DHT22;47983;53.016;-2.260;2022-09-25T07:05:36;4.60;99.90
59307;DHT22;47983;53.016;-2.260;2022-09-25T07:08:03;4.70;99.90
59307;DHT22;47983;53.016;-2.260;2022-09-25T07:10:31;4.80;99.90
59307;DHT22;47983;53.016;-2.260;2022-09-25T07:12:58;4.80;99.90
59307;DHT22;47983;53.016;-2.260;2022-09-25T07:15:26;4.90;99.90
59307;DHT22;47983;53.016;-2.260;2022-09-25T07:17:53;4.90;99.90
59307;DHT22;47983;53.016;-2.260;2022-09-25T07:20:21;5.00;99.90
59307;DHT22;47983;53.016;-2.260;2022-09-25T07:22:48;5.10;99.90
59307;DHT22;47983;53.016;-2.260;2022-09-25T07:25:16;5.10;99.90
59307;DHT22;47983;53.016;-2.260;2022-09-25T07:27:43;5.20;99.90
59307;DHT22;47983;53.016;-2.260;2022-09-25T07:30:11;5.20;99.90
59307;DHT22;47983;53.016;-2.260;2022-09-25T07:32:39;5.20;99.90
59307;DHT22;47983;53.016;-2.260;2022-09-25T07:35:06;5.20;99.90
59307;DHT22;47983;53.016;-2.260;2022-09-25T07:37:34;5.30;99.90
59307;DHT22;47983;53.016;-2.260;2022-09-25T07:40:01;5.30;99.90
59307;DHT22;47983;53.016;-2.260;2022-09-25T07:42:28;5.40;99.90
59307;DHT22;47983;53.016;-2.260;2022-09-25T07:44:56;5.40;99.90
59307;DHT22;47983;53.016;-2.260;2022-09-25T07:47:23;5.50;99.90
59307;DHT22;47983;53.016;-2.260;2022-09-25T07:49:51;5.60;99.90
59307;DHT22;47983;53.016;-2.260;2022-09-25T07:52:18;5.70;99.90
59307;DHT22;47983;53.016;-2.260;2022-09-25T07:54:45;5.80;99.90
59307;DHT22;47983;53.016;-2.260;2022-09-25T07:57:13;6.00;99.90
59307;DHT22;47983;53.016;-2.260;2022-09-25T07:59:41;6.10;99.90
59307;DHT22;47983;53.016;-2.260;2022-09-25T08:02:08;6.30;99.90
59307;DHT22;47983;53.016;-2.260;2022-09-25T08:04:36;6.40;99.90
59307;DHT22;47983;53.016;-2.260;2022-09-25T08:07:03;6.50;99.90
59307;DHT22;47983;53.016;-2.260;2022-09-25T08:09:31;6.70;99.90
59307;DHT22;47983;53.016;-2.260;2022-09-25T08:11:58;6.80;99.90
59307;DHT22;47983;53.016;-2.260;2022-09-25T08:14:25;7.00;99.90
59307;DHT22;47983;53.016;-2.260;2022-09-25T08:16:53;7.10;99.90
59307;DHT22;47983;53.016;-2.260;2022-09-25T08:19:22;7.20;99.90
59307;DHT22;47983;53.016;-2.260;2022-09-25T08:21:50;7.30;99.90
59307;DHT22;47983;53.016;-2.260;2022-09-25T08:24:17;7.50;99.90
59307;DHT22;47983;53.016;-2.260;2022-09-25T08:26:45;7.70;99.90
59307;DHT22;47983;53.016;-2.260;2022-09-25T08:29:12;7.80;99.90
59307;DHT22;47983;53.016;-2.260;2022-09-25T08:31:40;7.90;99.90
59307;DHT22;47983;53.016;-2.260;2022-09-25T08:34:07;8.00;99.90
59307;DHT22;47983;53.016;-2.260;2022-09-25T08:36:56;8.00;99.90
59307;DHT22;47983;53.016;-2.260;2022-09-25T08:39:24;8.10;99.90
59307;DHT22;47983;53.016;-2.260;2022-09-25T08:41:52;8.20;99.90
59307;DHT22;47983;53.016;-2.260;2022-09-25T08:44:38;8.30;99.90
59307;DHT22;47983;53.016;-2.260;2022-09-25T08:47:17;8.40;99.90
59307;DHT22;47983;53.016;-2.260;2022-09-25T08:50:11;8.60;99.90
59307;DHT22;47983;53.016;-2.260;2022-09-25T08:52:40;8.60;99.90
59307;DHT22;47983;53.016;-2.260;2022-09-25T08:55:12;8.70;99.90
59307;DHT22;47983;53.016;-2.260;2022-09-25T08:57:41;8.80;99.90
59307;DHT22;47983;53.016;-2.260;2022-09-25T09:00:18;8.90;99.90
59307;DHT22;47983;53.016;-2.260;2022-09-25T09:02:51;8.90;99.90
59307;DHT22;47983;53.016;-2.260;2022-09-25T09:05:24;9.00;99.90
59307;DHT22;47983;53.016;-2.260;2022-09-25T09:07:53;9.10;99.90
59307;DHT22;47983;53.016;-2.260;2022-09-25T09:12:51;9.10;99.90
59307;DHT22;47983;53.016;-2.260;2022-09-25T09:17:47;9.20;99.90
59307;DHT22;47983;53.016;-2.260;2022-09-25T09:20:16;9.30;99.90
59307;DHT22;47983;53.016;-2.260;2022-09-25T09:22:46;9.40;99.90
59307;DHT22;47983;53.016;-2.260;2022-09-25T09:38:41;10.40;99.90
59307;DHT22;47983;53.016;-2.260;2022-09-25T09:44:04;10.70;99.90
59307;DHT22;47983;53.016;-2.260;2022-09-25T09:49:45;11.20;99.90
59307;DHT22;47983;53.016;-2.260;2022-09-25T09:52:17;11.50;99.90
59307;DHT22;47983;53.016;-2.260;2022-09-25T09:57:23;12.00;99.90
59307;DHT22;47983;53.016;-2.260;2022-09-25T09:59:59;12.20;99.90
59307;DHT22;47983;53.016;-2.260;2022-09-25T10:02:39;12.40;99.90
59307;DHT22;47983;53.016;-2.260;2022-09-25T10:05:29;12.60;99.90
59307;DHT22;47983;53.016;-2.260;2022-09-25T10:07:54;12.80;99.90
59307;DHT22;47983;53.016;-2.260;2022-09-25T10:10:23;13.00;99.90
59307;DHT22;47983;53.016;-2.260;2022-09-25T10:12:55;13.10;99.90
59307;DHT22;47983;53.016;-2.260;2022-09-25T10:15:37;13.30;99.90
59307;DHT22;47983;53.016;-2.260;2022-09-25T10:18:05;13.40;99.90
59307;DHT22;47983;53.016;-2.260;2022-09-25T10:20:44;13.40;99.90
59307;DHT22;47983;53.016;-2.260;2022-09-25T10:23:15;13.50;99.90
59307;DHT22;47983;53.016;-2.260;2022-09-25T10:25:44;13.60;99.90
59307;DHT22;47983;53.016;-2.260;2022-09-25T10:30:48;13.80;99.90
59307;DHT22;47983;53.016;-2.260;2022-09-25T10:33:18;13.90;99.90
59307;DHT22;47983;53.016;-2.260;2022-09-25T10:35:46;13.90;99.90
59307;DHT22;47983;53.016;-2.260;2022-09-25T10:40:58;14.10;99.90
59307;DHT22;47983;53.016;-2.260;2022-09-25T10:43:29;14.20;99.90
59307;DHT22;47983;53.016;-2.260;2022-09-25T10:48:32;14.40;99.90
59307;DHT22;47983;53.016;-2.260;2022-09-25T10:51:18;14.40;99.90
59307;DHT22;47983;53.016;-2.260;2022-09-25T10:53:51;14.50;99.90
59307;DHT22;47983;53.016;-2.260;2022-09-25T10:56:23;14.50;99.90
59307;DHT22;47983;53.016;-2.260;2022-09-25T10:58:56;14.50;99.90
59307;DHT22;47983;53.016;-2.260;2022-09-25T11:01:34;14.50;99.90
59307;DHT22;47983;53.016;-2.260;2022-09-25T11:04:04;14.60;99.90
59307;DHT22;47983;53.016;-2.260;2022-09-25T11:06:32;14.60;99.90
59307;DHT22;47983;53.016;-2.260;2022-09-25T11:11:31;14.60;99.90
59307;DHT22;47983;53.016;-2.260;2022-09-25T11:13:59;14.60;99.90
59307;DHT22;47983;53.016;-2.260;2022-09-25T11:19:14;14.50;99.90
59307;DHT22;47983;53.016;-2.260;2022-09-25T11:21:56;14.60;99.90
59307;DHT22;47983;53.016;-2.260;2022-09-25T11:24:36;14.60;99.90
59307;DHT22;47983;53.016;-2.260;2022-09-25T11:32:10;14.80;99.90
59307;DHT22;47983;53.016;-2.260;2022-09-25T11:34:52;14.90;99.90
59307;DHT22;47983;53.016;-2.260;2022-09-25T11:43:13;14.80;99.90
59307;DHT22;47983;53.016;-2.260;2022-09-25T11:45:52;14.80;99.90
59307;DHT22;47983;53.016;-2.260;2022-09-25T11:51:20;14.60;99.90
59307;DHT22;47983;53.016;-2.260;2022-09-25T11:59:54;14.40;99.90
59307;DHT22;47983;53.016;-2.260;2022-09-25T12:02:18;14.40;99.90
59307;DHT22;47983;53.016;-2.260;2022-09-25T12:04:55;14.30;99.90
59307;DHT22;47983;53.016;-2.260;2022-09-25T12:07:32;14.20;99.90
59307;DHT22;47983;53.016;-2.260;2022-09-25T12:10:06;14.20;99.90
59307;DHT22;47983;53.016;-2.260;2022-09-25T12:12:40;14.20;99.90
59307;DHT22;47983;53.016;-2.260;2022-09-25T12:23:14;14.40;99.90
59307;DHT22;47983;53.016;-2.260;2022-09-25T12:28:51;14.60;99.90
59307;DHT22;47983;53.016;-2.260;2022-09-25T12:36:21;14.90;99.90
59307;DHT22;47983;53.016;-2.260;2022-09-25T12:39:00;15.10;99.90
59307;DHT22;47983;53.016;-2.260;2022-09-25T12:41:42;15.40;99.90
59307;DHT22;47983;53.016;-2.260;2022-09-25T12:44:21;15.60;99.90
59307;DHT22;47983;53.016;-2.260;2022-09-25T12:47:01;15.80;99.90
59307;DHT22;47983;53.016;-2.260;2022-09-25T12:49:33;16.10;99.90
59307;DHT22;47983;53.016;-2.260;2022-09-25T12:52:03;16.20;99.90
59307;DHT22;47983;53.016;-2.260;2022-09-25T12:57:11;16.10;99.90
59307;DHT22;47983;53.016;-2.260;2022-09-25T13:02:17;15.90;99.90
59307;DHT22;47983;53.016;-2.260;2022-09-25T13:09:56;15.50;99.90
59307;DHT22;47983;53.016;-2.260;2022-09-25T13:12:32;15.30;99.90
59307;DHT22;47983;53.016;-2.260;2022-09-25T13:17:35;14.90;99.90
59307;DHT22;47983;53.016;-2.260;2022-09-25T13:22:49;14.50;99.90
59307;DHT22;47983;53.016;-2.260;2022-09-25T13:25:16;14.20;99.90
59307;DHT22;47983;53.016;-2.260;2022-09-25T13:27:45;14.10;99.90
59307;DHT22;47983;53.016;-2.260;2022-09-25T13:30:20;13.90;99.90
59307;DHT22;47983;53.016;-2.260;2022-09-25T13:32:48;13.80;99.90
59307;DHT22;47983;53.016;-2.260;2022-09-25T13:35:17;13.60;99.90
59307;DHT22;47983;53.016;-2.260;2022-09-25T13:37:46;13.60;99.90
59307;DHT22;47983;53.016;-2.260;2022-09-25T13:40:15;13.60;99.90
59307;DHT22;47983;53.016;-2.260;2022-09-25T13:43:21;13.70;99.90
59307;DHT22;47983;53.016;-2.260;2022-09-25T13:46:33;13.70;99.90
59307;DHT22;47983;53.016;-2.260;2022-09-25T13:48:42;13.70;99.90
59307;DHT22;47983;53.016;-2.260;2022-09-25T13:53:55;13.70;99.90
59307;DHT22;47983;53.016;-2.260;2022-09-25T13:56:26;13.70;99.90
59307;DHT22;47983;53.016;-2.260;2022-09-25T14:01:38;13.80;99.90
59307;DHT22;47983;53.016;-2.260;2022-09-25T14:04:07;13.90;99.90
59307;DHT22;47983;53.016;-2.260;2022-09-25T14:06:36;13.90;99.90
59307;DHT22;47983;53.016;-2.260;2022-09-25T14:09:09;14.00;99.90
59307;DHT22;47983;53.016;-2.260;2022-09-25T14:11:37;14.10;99.90
59307;DHT22;47983;53.016;-2.260;2022-09-25T14:14:06;14.10;99.90
59307;DHT22;47983;53.016;-2.260;2022-09-25T14:16:39;14.20;99.90
59307;DHT22;47983;53.016;-2.260;2022-09-25T14:19:16;14.30;99.90
59307;DHT22;47983;53.016;-2.260;2022-09-25T14:21:44;14.40;99.90
59307;DHT22;47983;53.016;-2.260;2022-09-25T14:24:17;14.50;99.90
59307;DHT22;47983;53.016;-2.260;2022-09-25T14:26:46;14.60;99.90
59307;DHT22;47983;53.016;-2.260;2022-09-25T14:29:18;14.60;99.90
59307;DHT22;47983;53.016;-2.260;2022-09-25T14:45:04;14.50;99.90
59307;DHT22;47983;53.016;-2.260;2022-09-25T14:47:39;14.50;99.90
59307;DHT22;47983;53.016;-2.260;2022-09-25T14:50:22;14.50;99.90
59307;DHT22;47983;53.016;-2.260;2022-09-25T14:52:51;14.50;99.90
59307;DHT22;47983;53.016;-2.260;2022-09-25T14:55:20;14.50;99.90
59307;DHT22;47983;53.016;-2.260;2022-09-25T14:57:51;14.50;99.90
59307;DHT22;47983;53.016;-2.260;2022-09-25T15:00:19;14.60;99.90
59307;DHT22;47983;53.016;-2.260;2022-09-25T15:02:51;14.60;99.90
59307;DHT22;47983;53.016;-2.260;2022-09-25T15:07:47;14.70;99.90
59307;DHT22;47983;53.016;-2.260;2022-09-25T15:12:51;14.90;99.90
59307;DHT22;47983;53.016;-2.260;2022-09-25T15:15:19;15.00;99.90
59307;DHT22;47983;53.016;-2.260;2022-09-25T15:20:17;15.10;99.90
59307;DHT22;47983;53.016;-2.260;2022-09-25T15:22:56;15.10;99.90
59307;DHT22;47983;53.016;-2.260;2022-09-25T15:25:31;15.10;99.90
59307;DHT22;47983;53.016;-2.260;2022-09-25T15:28:00;15.10;99.90
59307;DHT22;47983;53.016;-2.260;2022-09-25T15:30:30;15.00;99.90
59307;DHT22;47983;53.016;-2.260;2022-09-25T15:33:00;15.00;99.90
59307;DHT22;47983;53.016;-2.260;2022-09-25T15:35:27;15.10;99.90
59307;DHT22;47983;53.016;-2.260;2022-09-25T15:38:02;15.10;99.90
59307;DHT22;47983;53.016;-2.260;2022-09-25T15:40:31;15.20;99.90
59307;DHT22;47983;53.016;-2.260;2022-09-25T15:42:59;15.20;99.90
59307;DHT22;47983;53.016;-2.260;2022-09-25T15:47:55;15.20;99.90
59307;DHT22;47983;53.016;-2.260;2022-09-25T15:50:23;15.20;99.90
59307;DHT22;47983;53.016;-2.260;2022-09-25T15:52:52;15.10;99.90
59307;DHT22;47983;53.016;-2.260;2022-09-25T15:55:20;15.20;99.90
59307;DHT22;47983;53.016;-2.260;2022-09-25T15:57:48;15.20;99.90
59307;DHT22;47983;53.016;-2.260;2022-09-25T16:03:04;15.20;99.90
59307;DHT22;47983;53.016;-2.260;2022-09-25T16:05:55;15.20;99.90
59307;DHT22;47983;53.016;-2.260;2022-09-25T16:08:26;15.20;99.90
59307;DHT22;47983;53.016;-2.260;2022-09-25T16:11:38;15.10;99.90
59307;DHT22;47983;53.016;-2.260;2022-09-25T16:14:11;15.00;99.90
59307;DHT22;47983;53.016;-2.260;2022-09-25T16:16:44;15.00;99.90
59307;DHT22;47983;53.016;-2.260;2022-09-25T16:19:33;14.80;99.90
59307;DHT22;47983;53.016;-2.260;2022-09-25T16:22:00;14.80;99.90
59307;DHT22;47983;53.016;-2.260;2022-09-25T16:24:38;14.70;99.90
59307;DHT22;47983;53.016;-2.260;2022-09-25T16:27:16;14.60;99.90
59307;DHT22;47983;53.016;-2.260;2022-09-25T16:29:45;14.50;99.90
59307;DHT22;47983;53.016;-2.260;2022-09-25T16:32:14;14.40;99.90
59307;DHT22;47983;53.016;-2.260;2022-09-25T16:34:48;14.40;99.90
59307;DHT22;47983;53.016;-2.260;2022-09-25T16:37:18;14.30;99.90
59307;DHT22;47983;53.016;-2.260;2022-09-25T16:40:06;14.30;99.90
59307;DHT22;47983;53.016;-2.260;2022-09-25T16:42:34;14.20;99.90
59307;DHT22;47983;53.016;-2.260;2022-09-25T16:45:13;14.10;99.90
59307;DHT22;47983;53.016;-2.260;2022-09-25T16:47:41;14.00;99.90
59307;DHT22;47983;53.016;-2.260;2022-09-25T16:50:16;13.80;99.90
59307;DHT22;47983;53.016;-2.260;2022-09-25T16:52:43;13.80;99.90
59307;DHT22;47983;53.016;-2.260;2022-09-25T16:55:29;13.70;99.90
59307;DHT22;47983;53.016;-2.260;2022-09-25T16:58:00;13.70;99.90
59307;DHT22;47983;53.016;-2.260;2022-09-25T17:00:29;13.60;99.90
59307;DHT22;47983;53.016;-2.260;2022-09-25T17:02:57;13.60;99.90
59307;DHT22;47983;53.016;-2.260;2022-09-25T17:05:26;13.50;99.90
59307;DHT22;47983;53.016;-2.260;2022-09-25T17:07:56;13.50;99.90
59307;DHT22;47983;53.016;-2.260;2022-09-25T17:10:25;13.50;99.90
59307;DHT22;47983;53.016;-2.260;2022-09-25T17:12:53;13.40;99.90
59307;DHT22;47983;53.016;-2.260;2022-09-25T17:15:22;13.40;99.90
59307;DHT22;47983;53.016;-2.260;2022-09-25T17:17:51;13.40;99.90
59307;DHT22;47983;53.016;-2.260;2022-09-25T17:20:22;13.40;99.90
59307;DHT22;47983;53.016;-2.260;2022-09-25T17:22:51;13.40;99.90
59307;DHT22;47983;53.016;-2.260;2022-09-25T17:28:07;13.30;99.90
59307;DHT22;47983;53.016;-2.260;2022-09-25T17:30:35;13.30;99.90
59307;DHT22;47983;53.016;-2.260;2022-09-25T17:33:03;13.30;99.90
59307;DHT22;47983;53.016;-2.260;2022-09-25T17:35:36;13.30;99.90
59307;DHT22;47983;53.016;-2.260;2022-09-25T17:38:04;13.20;99.90
59307;DHT22;47983;53.016;-2.260;2022-09-25T17:40:31;13.20;99.90
59307;DHT22;47983;53.016;-2.260;2022-09-25T17:42:59;13.20;99.90
59307;DHT22;47983;53.016;-2.260;2022-09-25T17:46:01;13.20;99.90
59307;DHT22;47983;53.016;-2.260;2022-09-25T17:48:22;13.10;99.90
59307;DHT22;47983;53.016;-2.260;2022-09-25T17:50:51;13.10;99.90
59307;DHT22;47983;53.016;-2.260;2022-09-25T17:53:19;13.10;99.90
59307;DHT22;47983;53.016;-2.260;2022-09-25T17:55:47;13.00;99.90
59307;DHT22;47983;53.016;-2.260;2022-09-25T17:58:20;13.00;99.90
59307;DHT22;47983;53.016;-2.260;2022-09-25T18:00:48;13.00;99.90
59307;DHT22;47983;53.016;-2.260;2022-09-25T18:03:16;13.00;99.90
59307;DHT22;47983;53.016;-2.260;2022-09-25T18:05:44;12.90;99.90
59307;DHT22;47983;53.016;-2.260;2022-09-25T18:08:12;12.90;99.90
59307;DHT22;47983;53.016;-2.260;2022-09-25T18:10:40;12.90;99.90
59307;DHT22;47983;53.016;-2.260;2022-09-25T18:13:09;12.90;99.90
59307;DHT22;47983;53.016;-2.260;2022-09-25T18:15:46;12.90;99.90